Time;durP1;ratioP1;P1;durP2;ratioP2;P2;SDS_P1;SDS_P2;PMS_P1;PMS_P2;Temp;Humidity;BMP_temperature;BMP_pressure;BME280_temperature;BME280_humidity;BME280_pressure;Samples;Min_cycle;Max_cycle;Signal;HPM_P1;HPM_P2
2022/07/21 00:01:12;;;;;;;15.10;9.37;;;;;;;;;;7656012;23;20013;-61
2022/07/21 00:04:15;;;;;;;14.57;9.07;;;;;;;;;;7661095;23;20021;-61
2022/07/21 00:07:15;;;;;;;14.30;9.73;;;;;;;;;;7670495;23;20365;-60
2022/07/21 00:10:17;;;;;;;14.17;9.27;;;;;;;;;;7669575;23;20044;-62
2022/07/21 00:13:18;;;;;;;13.80;9.45;;;;;;;;;;7672158;23;20021;-64
2022/07/21 00:16:19;;;;;;;13.75;9.93;;;;;;;;;;7672931;23;20021;-61
2022/07/21 00:19:20;;;;;;;15.63;9.93;;;;;;;;;;7670523;23;20024;-65
2022/07/21 00:22:20;;;;;;;14.10;9.33;;;;;;;;;;7670246;23;20017;-61
2022/07/21 00:25:21;;;;;;;15.17;8.83;;;;;;;;;;7670861;23;20096;-61
2022/07/21 00:28:22;;;;;;;18.85;9.98;;;;;;;;;;7671777;23;20050;-61
2022/07/21 00:31:23;;;;;;;15.03;9.87;;;;;;;;;;7670264;23;20390;-63
2022/07/21 00:34:24;;;;;;;15.27;9.53;;;;;;;;;;7672305;23;20096;-61
2022/07/21 00:37:26;;;;;;;12.63;9.03;;;;;;;;;;7668074;23;20525;-61
2022/07/21 00:40:27;;;;;;;16.67;10.50;;;;;;;;;;7668922;23;20021;-65
2022/07/21 00:43:28;;;;;;;15.67;9.80;;;;;;;;;;7670460;23;20525;-63
2022/07/21 00:46:30;;;;;;;14.87;10.17;;;;;;;;;;7669508;23;20147;-61
2022/07/21 00:49:30;;;;;;;13.70;9.20;;;;;;;;;;7670035;23;20021;-64
2022/07/21 00:52:31;;;;;;;14.20;9.40;;;;;;;;;;7670135;23;20036;-63
2022/07/21 00:55:32;;;;;;;16.53;9.57;;;;;;;;;;7670312;23;20071;-61
2022/07/21 00:58:33;;;;;;;13.40;9.17;;;;;;;;;;7669341;23;20103;-65
2022/07/21 01:01:33;;;;;;;19.07;10.03;;;;;;;;;;7666486;23;20253;-61
2022/07/21 01:04:35;;;;;;;15.97;10.03;;;;;;;;;;7668781;23;20056;-61
2022/07/21 01:07:35;;;;;;;14.57;9.20;;;;;;;;;;7669296;23;20166;-60
2022/07/21 01:10:36;;;;;;;15.43;9.70;;;;;;;;;;7669992;23;20072;-61
2022/07/21 01:13:41;;;;;;;17.37;9.27;;;;;;;;;;7670270;23;20084;-60
2022/07/21 01:16:43;;;;;;;13.68;9.05;;;;;;;;;;7670842;23;20112;-62
2022/07/21 01:19:43;;;;;;;17.08;9.82;;;;;;;;;;7667522;23;20472;-61
2022/07/21 01:22:47;;;;;;;16.83;9.60;;;;;;;;;;7670122;23;20024;-59
2022/07/21 01:25:50;;;;;;;16.10;9.85;;;;;;;;;;7670346;23;20530;-60
2022/07/21 01:28:51;;;;;;;13.43;9.13;;;;;;;;;;7669824;23;20024;-60
2022/07/21 01:31:52;;;;;;;16.75;9.57;;;;;;;;;;7669940;23;20029;-60
2022/07/21 01:34:53;;;;;;;15.70;9.80;;;;;;;;;;7667369;23;20117;-60
2022/07/21 01:37:54;;;;;;;15.83;9.43;;;;;;;;;;7669972;23;20025;-64
2022/07/21 01:44:17;;;;;;;16.38;9.57;;;;;;;;;;7666571;23;20779;-60
2022/07/21 01:47:20;;;;;;;16.25;9.55;;;;;;;;;;7670922;23;20370;-60
2022/07/21 01:50:26;;;;;;;17.65;10.45;;;;;;;;;;7670041;23;20024;-64
2022/07/21 01:53:26;;;;;;;15.88;10.68;;;;;;;;;;7669332;23;20021;-60
2022/07/21 01:56:27;;;;;;;16.63;11.10;;;;;;;;;;7670479;23;20056;-60
2022/07/21 01:59:28;;;;;;;15.63;10.83;;;;;;;;;;7670910;23;20091;-60
2022/07/21 02:02:28;;;;;;;14.10;10.07;;;;;;;;;;7668858;23;20020;-60
2022/07/21 02:05:29;;;;;;;15.00;10.97;;;;;;;;;;7670102;23;20032;-60
2022/07/21 02:08:30;;;;;;;17.80;10.27;;;;;;;;;;7669732;23;20491;-60
2022/07/21 02:11:31;;;;;;;17.35;10.18;;;;;;;;;;7669039;23;20604;-60
2022/07/21 02:14:31;;;;;;;17.57;11.07;;;;;;;;;;7668732;23;20096;-60
2022/07/21 02:17:32;;;;;;;12.77;9.50;;;;;;;;;;7668596;23;20083;-62
2022/07/21 02:20:32;;;;;;;19.00;10.80;;;;;;;;;;7667113;23;20318;-60
2022/07/21 02:23:34;;;;;;;14.83;9.40;;;;;;;;;;7666388;23;20039;-60
2022/07/21 02:26:34;;;;;;;14.63;9.80;;;;;;;;;;7674671;23;20025;-61
2022/07/21 02:29:35;;;;;;;15.07;10.43;;;;;;;;;;7666981;23;20120;-60
2022/07/21 02:32:36;;;;;;;15.60;10.17;;;;;;;;;;7665322;23;20017;-60
2022/07/21 02:35:36;;;;;;;16.23;10.50;;;;;;;;;;7664506;23;20022;-60
2022/07/21 02:38:37;;;;;;;15.07;9.43;;;;;;;;;;7665367;23;20086;-59
2022/07/21 02:41:38;;;;;;;13.43;9.90;;;;;;;;;;7667410;23;20067;-60
2022/07/21 02:44:38;;;;;;;15.37;9.83;;;;;;;;;;7666121;23;20023;-60
2022/07/21 02:47:53;;;;;;;16.00;9.77;;;;;;;;;;7663032;23;20449;-63
2022/07/21 02:50:53;;;;;;;16.65;9.77;;;;;;;;;;7665919;23;20072;-59
2022/07/21 02:53:54;;;;;;;13.97;9.73;;;;;;;;;;7678270;23;20120;-60
2022/07/21 02:56:54;;;;;;;18.80;9.63;;;;;;;;;;7666866;23;20083;-60
2022/07/21 02:59:55;;;;;;;16.77;9.70;;;;;;;;;;7666258;23;20069;-59
2022/07/21 03:02:55;;;;;;;15.13;9.37;;;;;;;;;;7665995;23;20475;-59
2022/07/21 03:05:57;;;;;;;13.37;8.90;;;;;;;;;;7675419;23;20044;-60
2022/07/21 03:08:58;;;;;;;14.93;9.10;;;;;;;;;;7667754;23;20527;-61
2022/07/21 03:11:58;;;;;;;13.60;9.13;;;;;;;;;;7665684;23;20075;-62
2022/07/21 03:14:59;;;;;;;15.90;9.03;;;;;;;;;;7669067;23;20017;-59
2022/07/21 03:18:00;;;;;;;16.30;9.63;;;;;;;;;;7666708;23;20103;-59
2022/07/21 03:21:00;;;;;;;12.47;9.10;;;;;;;;;;7665111;23;20100;-61
2022/07/21 03:24:01;;;;;;;14.13;9.03;;;;;;;;;;7664061;23;20021;-62
2022/07/21 03:27:02;;;;;;;14.17;8.80;;;;;;;;;;7667395;23;20096;-61
2022/07/21 03:30:06;;;;;;;15.40;9.30;;;;;;;;;;7666701;23;20461;-61
2022/07/21 03:33:06;;;;;;;16.20;9.60;;;;;;;;;;7671061;23;20013;-61
2022/07/21 03:36:07;;;;;;;15.27;9.63;;;;;;;;;;7665933;23;20455;-63
2022/07/21 03:39:07;;;;;;;14.90;9.13;;;;;;;;;;7666583;23;20017;-61
2022/07/21 03:42:08;;;;;;;12.00;8.93;;;;;;;;;;7667757;23;20020;-61
2022/07/21 03:45:10;;;;;;;15.30;9.47;;;;;;;;;;7667268;23;20083;-63
2022/07/21 03:48:11;;;;;;;14.35;9.07;;;;;;;;;;7669918;23;20463;-63
2022/07/21 03:51:12;;;;;;;13.15;8.80;;;;;;;;;;7666897;23;20084;-62
2022/07/21 03:54:12;;;;;;;17.50;9.20;;;;;;;;;;7669157;23;20096;-61
2022/07/21 03:57:13;;;;;;;15.70;8.90;;;;;;;;;;7668431;23;20389;-62
2022/07/21 04:00:17;;;;;;;15.50;9.10;;;;;;;;;;7672347;23;20306;-62
2022/07/21 04:03:17;;;;;;;16.13;9.27;;;;;;;;;;7672318;23;20024;-62
2022/07/21 04:06:18;;;;;;;14.33;9.17;;;;;;;;;;7670661;23;20024;-63
2022/07/21 04:09:19;;;;;;;14.80;8.40;;;;;;;;;;7671150;23;20573;-64
2022/07/21 04:12:19;;;;;;;13.13;8.43;;;;;;;;;;7671595;23;20041;-62
2022/07/21 04:15:20;;;;;;;14.53;8.13;;;;;;;;;;7668411;23;20452;-63
2022/07/21 04:18:21;;;;;;;12.77;7.90;;;;;;;;;;7671288;23;20060;-62
2022/07/21 04:21:21;;;;;;;16.30;8.67;;;;;;;;;;7671461;23;20577;-65
2022/07/21 04:24:22;;;;;;;16.37;8.60;;;;;;;;;;7668976;23;20111;-62
2022/07/21 04:27:23;;;;;;;15.40;9.23;;;;;;;;;;7670047;23;20145;-62
2022/07/21 04:30:24;;;;;;;17.10;9.33;;;;;;;;;;7669430;23;20028;-61
2022/07/21 04:33:24;;;;;;;17.07;9.80;;;;;;;;;;7666965;23;20270;-62
2022/07/21 04:36:25;;;;;;;16.83;9.53;;;;;;;;;;7664560;23;20833;-65
2022/07/21 04:39:25;;;;;;;17.13;8.90;;;;;;;;;;7670895;23;20112;-62
2022/07/21 04:42:27;;;;;;;16.87;9.97;;;;;;;;;;7669382;23;20445;-64
2022/07/21 04:45:27;;;;;;;14.90;9.57;;;;;;;;;;7669308;23;20433;-62
2022/07/21 04:48:28;;;;;;;19.87;10.00;;;;;;;;;;7671930;23;20025;-62
2022/07/21 04:51:28;;;;;;;17.30;9.47;;;;;;;;;;7669130;23;20027;-62
2022/07/21 04:54:29;;;;;;;15.00;8.57;;;;;;;;;;7667923;23;20013;-62
2022/07/21 04:57:29;;;;;;;14.57;9.20;;;;;;;;;;7665981;23;20021;-63
2022/07/21 05:00:30;;;;;;;18.13;8.63;;;;;;;;;;7667548;23;20021;-64
2022/07/21 05:03:30;;;;;;;15.70;9.17;;;;;;;;;;7668438;23;20037;-63
2022/07/21 05:06:31;;;;;;;14.37;9.33;;;;;;;;;;7667277;23;20346;-62
2022/07/21 05:09:33;;;;;;;15.60;9.25;;;;;;;;;;7667000;23;20028;-62
2022/07/21 05:12:34;;;;;;;21.97;9.50;;;;;;;;;;7664423;23;20333;-62
2022/07/21 05:15:35;;;;;;;20.25;9.73;;;;;;;;;;7666317;23;20107;-62
2022/07/21 05:18:36;;;;;;;15.17;8.93;;;;;;;;;;7668301;23;20028;-62
2022/07/21 05:21:36;;;;;;;18.43;9.10;;;;;;;;;;7666379;23;20100;-62
2022/07/21 05:24:37;;;;;;;18.77;9.30;;;;;;;;;;7666730;23;20021;-62
2022/07/21 05:27:37;;;;;;;15.10;8.70;;;;;;;;;;7667755;23;20108;-62
2022/07/21 05:30:38;;;;;;;13.20;8.30;;;;;;;;;;7668145;23;20479;-62
2022/07/21 05:33:39;;;;;;;15.83;8.67;;;;;;;;;;7664369;23;20092;-62
2022/07/21 05:36:39;;;;;;;25.63;8.67;;;;;;;;;;7668013;23;20017;-63
2022/07/21 05:39:40;;;;;;;18.53;9.10;;;;;;;;;;7669981;23;20108;-62
2022/07/21 05:42:41;;;;;;;19.95;8.88;;;;;;;;;;7669059;23;20017;-62
2022/07/21 05:45:41;;;;;;;15.67;8.83;;;;;;;;;;7670605;23;20023;-62
2022/07/21 05:48:42;;;;;;;17.23;8.50;;;;;;;;;;7670320;23;20056;-62
2022/07/21 05:51:42;;;;;;;15.20;8.97;;;;;;;;;;7669127;23;20017;-63
2022/07/21 05:54:43;;;;;;;18.50;8.50;;;;;;;;;;7671394;23;20017;-64
2022/07/21 05:57:44;;;;;;;18.73;8.60;;;;;;;;;;7673088;23;20100;-62
2022/07/21 06:01:07;;;;;;;15.30;8.83;;;;;;;;;;7673173;23;20096;-62
2022/07/21 06:04:05;;;;;;;14.68;8.20;;;;;;;;;;7672734;23;20017;-62
2022/07/21 06:07:06;;;;;;;20.13;8.83;;;;;;;;;;7670610;23;20558;-62
2022/07/21 06:10:07;;;;;;;16.17;8.03;;;;;;;;;;7669976;23;20099;-65
2022/07/21 06:13:07;;;;;;;17.42;8.35;;;;;;;;;;7670780;23;20100;-62
2022/07/21 06:16:09;;;;;;;15.30;8.50;;;;;;;;;;7670270;23;20471;-62
2022/07/21 06:19:09;;;;;;;14.00;7.72;;;;;;;;;;7682266;23;20041;-62
2022/07/21 06:22:10;;;;;;;16.53;8.90;;;;;;;;;;7667921;23;20612;-62
2022/07/21 06:25:11;;;;;;;15.20;8.37;;;;;;;;;;7667600;23;20017;-63
2022/07/21 06:28:11;;;;;;;13.83;8.20;;;;;;;;;;7669192;23;20099;-62
2022/07/21 06:31:12;;;;;;;13.40;8.27;;;;;;;;;;7672864;23;20021;-65
2022/07/21 06:34:12;;;;;;;15.97;8.17;;;;;;;;;;7670012;23;20136;-66
2022/07/21 06:37:13;;;;;;;13.90;7.75;;;;;;;;;;7669033;23;20021;-62
2022/07/21 06:40:14;;;;;;;14.23;8.03;;;;;;;;;;7672243;23;20401;-62
2022/07/21 06:43:15;;;;;;;;;;;;;;;;;;7672663;23;20032;-64
2022/07/21 06:46:16;;;;;;;11.00;7.50;;;;;;;;;;7672455;23;20375;-63
2022/07/21 06:49:16;;;;;;;10.93;7.87;;;;;;;;;;7671785;23;20063;-64
2022/07/21 06:52:17;;;;;;;15.27;7.80;;;;;;;;;;7672144;23;20013;-63
2022/07/21 06:55:18;;;;;;;14.33;7.53;;;;;;;;;;7671909;23;20048;-61
2022/07/21 06:58:24;;;;;;;12.60;7.70;;;;;;;;;;7672004;23;20025;-63
2022/07/21 07:01:25;;;;;;;13.43;8.05;;;;;;;;;;7671077;23;20025;-63
2022/07/21 07:04:25;;;;;;;13.27;7.63;;;;;;;;;;7670847;23;20025;-63
2022/07/21 07:07:26;;;;;;;11.30;7.33;;;;;;;;;;7670789;23;20017;-63
2022/07/21 07:10:27;;;;;;;12.27;7.40;;;;;;;;;;7671740;23;20353;-63
2022/07/21 07:13:27;;;;;;;14.20;7.80;;;;;;;;;;7669765;23;20594;-63
2022/07/21 07:16:28;;;;;;;12.30;7.67;;;;;;;;;;7667848;23;20566;-63
2022/07/21 07:19:30;;;;;;;12.33;7.43;;;;;;;;;;7669383;23;20017;-63
2022/07/21 07:22:30;;;;;;;10.25;7.07;;;;;;;;;;7667447;23;20548;-63
2022/07/21 07:25:31;;;;;;;9.93;6.97;;;;;;;;;;7665684;23;20025;-63
2022/07/21 07:28:32;;;;;;;13.75;7.50;;;;;;;;;;7664449;23;20025;-63
2022/07/21 07:31:33;;;;;;;12.40;7.37;;;;;;;;;;7666174;23;20561;-64
2022/07/21 07:34:33;;;;;;;10.00;7.43;;;;;;;;;;7667575;23;20016;-63
2022/07/21 07:37:36;;;;;;;13.37;7.00;;;;;;;;;;7669191;23;20028;-65
2022/07/21 07:40:36;;;;;;;12.35;7.25;;;;;;;;;;7669717;23;20097;-64
2022/07/21 07:43:37;;;;;;;13.57;7.00;;;;;;;;;;7670164;23;20457;-63
2022/07/21 07:46:37;;;;;;;10.70;6.60;;;;;;;;;;7666917;23;20105;-63
2022/07/21 07:49:38;;;;;;;10.93;7.33;;;;;;;;;;7668683;23;20068;-63
2022/07/21 07:52:40;;;;;;;12.83;7.53;;;;;;;;;;7670336;23;20044;-63
2022/07/21 07:55:41;;;;;;;13.10;7.30;;;;;;;;;;7672028;23;20104;-64
2022/07/21 07:58:41;;;;;;;12.20;6.87;;;;;;;;;;7671088;23;20025;-64
2022/07/21 08:01:42;;;;;;;11.57;7.03;;;;;;;;;;7670769;23;20025;-63
2022/07/21 08:04:43;;;;;;;12.05;7.22;;;;;;;;;;7670111;23;20060;-63
2022/07/21 08:07:43;;;;;;;10.27;6.40;;;;;;;;;;7670109;23;20100;-65
2022/07/21 08:10:45;;;;;;;12.97;6.60;;;;;;;;;;7671291;23;20088;-65
2022/07/21 08:13:46;;;;;;;11.98;6.80;;;;;;;;;;7670498;23;20821;-63
2022/07/21 08:16:47;;;;;;;11.65;7.38;;;;;;;;;;7668182;23;20024;-63
2022/07/21 08:19:47;;;;;;;11.82;6.55;;;;;;;;;;7679703;23;20071;-63
2022/07/21 08:22:49;;;;;;;11.53;7.10;;;;;;;;;;7640189;23;20120;-63
2022/07/21 08:25:51;;;;;;;10.68;6.35;;;;;;;;;;7637501;23;20040;-64
2022/07/21 08:28:55;;;;;;;10.93;6.90;;;;;;;;;;7667851;23;20100;-63
2022/07/21 08:31:56;;;;;;;11.30;6.82;;;;;;;;;;7667346;23;20100;-64
2022/07/21 08:34:56;;;;;;;11.87;6.83;;;;;;;;;;7667101;23;20441;-63
2022/07/21 08:38:00;;;;;;;11.47;6.93;;;;;;;;;;7666963;23;20408;-63
2022/07/21 08:41:00;;;;;;;10.23;6.45;;;;;;;;;;7666924;23;20261;-63
2022/07/21 08:44:01;;;;;;;15.48;7.53;;;;;;;;;;7668265;23;20068;-64
2022/07/21 08:47:03;;;;;;;10.20;6.63;;;;;;;;;;7668423;23;20091;-63
2022/07/21 08:50:07;;;;;;;10.27;6.72;;;;;;;;;;7668602;23;20105;-64
2022/07/21 08:53:08;;;;;;;17.30;7.97;;;;;;;;;;7669019;23;20017;-64
2022/07/21 08:56:08;;;;;;;17.08;7.90;;;;;;;;;;7670354;23;20095;-63
2022/07/21 08:59:09;;;;;;;14.80;7.47;;;;;;;;;;7667865;23;20025;-67
2022/07/21 09:02:27;;;;;;;12.02;7.53;;;;;;;;;;7669242;23;20421;-64
2022/07/21 09:05:27;;;;;;;13.60;6.85;;;;;;;;;;7667933;23;20024;-66
2022/07/21 09:08:31;;;;;;;14.80;6.60;;;;;;;;;;7667529;23;20017;-64
2022/07/21 09:11:33;;;;;;;14.05;7.32;;;;;;;;;;7665148;23;20025;-64
2022/07/21 09:14:34;;;;;;;14.75;7.65;;;;;;;;;;7669219;23;20056;-68
2022/07/21 09:17:35;;;;;;;;;;;;;;;;;;7668821;23;20031;-64
2022/07/21 09:20:37;;;;;;;13.48;7.30;;;;;;;;;;7669877;23;20307;-65
2022/07/21 09:23:38;;;;;;;12.45;7.70;;;;;;;;;;7669017;23;20013;-63
2022/07/21 09:27:02;;;;;;;14.02;7.78;;;;;;;;;;7671099;23;20048;-64
2022/07/21 09:30:03;;;;;;;12.05;7.53;;;;;;;;;;7668947;23;20021;-64
2022/07/21 09:33:19;;;;;;;13.18;7.43;;;;;;;;;;7666336;23;20505;-63
2022/07/21 09:36:20;;;;;;;11.95;7.28;;;;;;;;;;7667749;23;20052;-64
2022/07/21 09:39:49;;;;;;;13.55;7.80;;;;;;;;;;7666165;23;20100;-64
2022/07/21 09:42:50;;;;;;;12.95;7.60;;;;;;;;;;7668115;23;20024;-63
2022/07/21 09:45:53;;;;;;;11.60;7.07;;;;;;;;;;7665880;23;20152;-63
2022/07/21 09:49:00;;;;;;;11.55;7.18;;;;;;;;;;7669101;23;20017;-63
2022/07/21 09:52:01;;;;;;;10.63;7.03;;;;;;;;;;7667651;23;20056;-66
2022/07/21 09:55:05;;;;;;;12.15;7.43;;;;;;;;;;7668927;23;20496;-63
2022/07/21 09:58:06;;;;;;;11.93;7.03;;;;;;;;;;7669791;23;20104;-66
2022/07/21 10:01:06;;;;;;;10.55;6.22;;;;;;;;;;7669610;23;20017;-65
2022/07/21 10:04:07;;;;;;;11.20;6.38;;;;;;;;;;7673593;23;20388;-63
2022/07/21 10:07:09;;;;;;;9.68;6.55;;;;;;;;;;7672709;23;20028;-63
2022/07/21 10:10:13;;;;;;;10.65;5.65;;;;;;;;;;7671677;23;20897;-63
2022/07/21 10:13:14;;;;;;;;;;;;;;;;;;7672164;23;20085;-66
2022/07/21 10:16:15;;;;;;;12.40;5.30;;;;;;;;;;7671021;23;19999;-63
2022/07/21 10:19:26;;;;;;;11.32;5.53;;;;;;;;;;7671845;23;20013;-64
2022/07/21 10:22:29;;;;;;;10.65;5.40;;;;;;;;;;7670439;23;20044;-63
2022/07/21 10:25:30;;;;;;;10.35;4.50;;;;;;;;;;7672343;23;20013;-64
2022/07/21 10:28:31;;;;;;;;;;;;;;;;;;7673548;23;20456;-63
2022/07/21 10:31:41;;;;;;;10.27;5.10;;;;;;;;;;7668822;23;19987;-63
2022/07/21 10:34:45;;;;;;;11.98;5.50;;;;;;;;;;7667380;23;20739;-64
2022/07/21 10:37:46;;;;;;;11.35;5.88;;;;;;;;;;7664289;23;20025;-63
2022/07/21 10:40:46;;;;;;;9.93;5.13;;;;;;;;;;7666356;23;20096;-63
2022/07/21 10:43:47;;;;;;;;;;;;;;;;;;7668070;23;20429;-63
2022/07/21 10:46:58;;;;;;;8.43;4.37;;;;;;;;;;7667449;23;19920;-64
2022/07/21 10:50:00;;;;;;;;;;;;;;;;;;7668344;23;20051;-64
2022/07/21 10:53:04;;;;;;;11.70;5.13;;;;;;;;;;7666868;23;20343;-63
2022/07/21 10:56:05;;;;;;;8.02;4.50;;;;;;;;;;7664575;23;20540;-63
2022/07/21 10:59:06;;;;;;;11.27;4.80;;;;;;;;;;7665940;23;20120;-63
2022/07/21 11:02:24;;;;;;;;;;;;;;;;;;7665215;23;20722;-63
2022/07/21 11:05:27;;;;;;;8.05;4.40;;;;;;;;;;7669710;23;19940;-63
2022/07/21 11:08:48;;;;;;;10.52;4.85;;;;;;;;;;7671930;23;20025;-66
2022/07/21 11:11:59;;;;;;;11.15;4.55;;;;;;;;;;7678604;23;20096;-63
2022/07/21 11:15:00;;;;;;;7.97;4.93;;;;;;;;;;7671313;23;20025;-64
2022/07/21 11:18:01;;;;;;;;;;;;;;;;;;7668803;23;20085;-64
2022/07/21 11:21:08;;;;;;;8.38;5.18;;;;;;;;;;7670123;23;19923;-63
2022/07/21 11:24:18;;;;;;;9.43;5.00;;;;;;;;;;7668654;23;20071;-63
2022/07/21 11:27:21;;;;;;;9.57;5.03;;;;;;;;;;7671036;23;20059;-63
2022/07/21 11:30:22;;;;;;;11.27;5.28;;;;;;;;;;7661260;23;20185;-65
2022/07/21 11:33:22;;;;;;;;;;;;;;;;;;7659843;23;20013;-63
2022/07/21 11:36:29;;;;;;;11.00;5.00;;;;;;;;;;7652583;23;20319;-64
2022/07/21 11:39:29;;;;;;;10.50;5.00;;;;;;;;;;7652116;23;20017;-69
2022/07/21 11:42:30;;;;;;;11.70;5.07;;;;;;;;;;7654391;23;20031;-63
2022/07/21 11:45:31;;;;;;;10.45;5.03;;;;;;;;;;7653267;23;20017;-63
2022/07/21 11:48:32;;;;;;;;;;;;;;;;;;7658175;23;20056;-64
2022/07/21 11:51:32;;;;;;;12.97;5.17;;;;;;;;;;7658170;23;19924;-65
2022/07/21 11:54:44;;;;;;;8.57;4.75;;;;;;;;;;7657079;23;20108;-69
2022/07/21 11:57:46;;;;;;;10.48;4.88;;;;;;;;;;7654310;23;20037;-64
2022/07/21 12:01:03;;;;;;;9.38;5.15;;;;;;;;;;7650464;23;20025;-63
2022/07/21 12:04:04;;;;;;;8.90;5.38;;;;;;;;;;7651891;23;20104;-66
2022/07/21 12:07:11;;;;;;;10.75;5.55;;;;;;;;;;7654860;23;20025;-63
2022/07/21 12:10:16;;;;;;;11.38;5.55;;;;;;;;;;7654286;23;20024;-63
2022/07/21 12:13:16;;;;;;;9.90;5.38;;;;;;;;;;7658119;23;20051;-67
2022/07/21 12:16:17;;;;;;;11.27;6.10;;;;;;;;;;7658177;23;20792;-63
2022/07/21 12:19:19;;;;;;;9.32;5.60;;;;;;;;;;7652802;23;20017;-63
2022/07/21 12:22:44;;;;;;;10.73;5.43;;;;;;;;;;7654426;23;20044;-69
2022/07/21 12:25:45;;;;;;;8.50;5.38;;;;;;;;;;7653884;23;20680;-63
2022/07/21 12:28:47;;;;;;;14.10;6.00;;;;;;;;;;7653444;23;20025;-65
2022/07/21 12:31:48;;;;;;;12.90;6.60;;;;;;;;;;7653284;23;20322;-62
2022/07/21 12:34:52;;;;;;;13.00;5.72;;;;;;;;;;7655365;23;20048;-66
2022/07/21 12:37:54;;;;;;;9.00;6.20;;;;;;;;;;7653945;23;20127;-62
2022/07/21 12:40:56;;;;;;;10.73;6.35;;;;;;;;;;7651565;23;20028;-64
2022/07/21 12:43:59;;;;;;;13.27;5.85;;;;;;;;;;7656070;23;20389;-65
2022/07/21 12:47:19;;;;;;;12.70;6.35;;;;;;;;;;7654828;23;20963;-62
2022/07/21 12:50:20;;;;;;;11.32;5.80;;;;;;;;;;7653765;23;20109;-63
2022/07/21 12:53:20;;;;;;;14.38;6.32;;;;;;;;;;7658469;23;20023;-64
2022/07/21 12:56:29;;;;;;;11.57;6.68;;;;;;;;;;7654464;23;20366;-69
2022/07/21 12:59:30;;;;;;;10.20;6.03;;;;;;;;;;7652088;23;20016;-63
2022/07/21 13:02:45;;;;;;;11.15;6.18;;;;;;;;;;7654059;23;20055;-65
2022/07/21 13:05:46;;;;;;;11.40;5.90;;;;;;;;;;7652050;23;20747;-63
2022/07/21 13:08:48;;;;;;;11.48;5.40;;;;;;;;;;7653207;23;20021;-63
2022/07/21 13:11:48;;;;;;;9.52;6.22;;;;;;;;;;7650992;23;20021;-64
2022/07/21 13:14:49;;;;;;;14.82;6.00;;;;;;;;;;7658590;23;20551;-65
2022/07/21 13:17:49;;;;;;;12.10;5.85;;;;;;;;;;7658520;23;20064;-62
2022/07/21 13:20:52;;;;;;;14.15;6.07;;;;;;;;;;7657089;23;20044;-62
2022/07/21 13:23:52;;;;;;;11.07;5.72;;;;;;;;;;7660046;23;20036;-62
2022/07/21 13:26:53;;;;;;;14.32;6.10;;;;;;;;;;7659136;23;20850;-62
2022/07/21 13:29:53;;;;;;;9.98;5.68;;;;;;;;;;7649382;23;20028;-62
2022/07/21 13:32:54;;;;;;;12.65;5.75;;;;;;;;;;7650975;23;20021;-62
2022/07/21 13:35:55;;;;;;;18.65;5.90;;;;;;;;;;7654346;23;20031;-63
2022/07/21 13:38:56;;;;;;;10.05;5.25;;;;;;;;;;7651929;23;20031;-62
2022/07/21 13:41:56;;;;;;;12.73;5.95;;;;;;;;;;7651006;23;20529;-64
2022/07/21 13:44:57;;;;;;;11.90;5.40;;;;;;;;;;7652004;23;20024;-65
2022/07/21 13:47:58;;;;;;;12.25;5.55;;;;;;;;;;7653542;23;20402;-66
2022/07/21 13:50:59;;;;;;;15.90;5.53;;;;;;;;;;7652541;23;20104;-62
2022/07/21 13:53:59;;;;;;;11.13;4.95;;;;;;;;;;7655372;23;20022;-62
2022/07/21 13:57:00;;;;;;;13.13;5.00;;;;;;;;;;7629305;23;20060;-65
2022/07/21 14:00:04;;;;;;;13.68;5.50;;;;;;;;;;7653337;23;20079;-66
2022/07/21 14:03:04;;;;;;;9.02;4.50;;;;;;;;;;7651641;23;20041;-69
2022/07/21 14:06:07;;;;;;;12.95;4.72;;;;;;;;;;7656749;23;20502;-63
2022/07/21 14:09:07;;;;;;;12.60;4.85;;;;;;;;;;7653935;23;20056;-63
2022/07/21 14:12:09;;;;;;;10.80;4.65;;;;;;;;;;7656871;23;20453;-67
2022/07/21 14:15:10;;;;;;;8.68;4.63;;;;;;;;;;7659251;23;20143;-64
2022/07/21 14:18:11;;;;;;;10.90;4.55;;;;;;;;;;7658587;23;20025;-62
2022/07/21 14:21:13;;;;;;;13.23;5.00;;;;;;;;;;7653436;23;20049;-66
2022/07/21 14:27:33;;;;;;;12.13;5.30;;;;;;;;;;7661015;23;20401;-63
2022/07/21 14:30:33;;;;;;;9.95;4.70;;;;;;;;;;7656159;23;20025;-67
2022/07/21 14:33:34;;;;;;;12.27;4.68;;;;;;;;;;7672597;23;20025;-62
2022/07/21 14:36:35;;;;;;;20.67;5.45;;;;;;;;;;7656773;23;20042;-65
2022/07/21 14:39:36;;;;;;;11.90;5.05;;;;;;;;;;7652615;23;20663;-64
2022/07/21 14:42:36;;;;;;;10.30;5.13;;;;;;;;;;7653089;23;20036;-66
2022/07/21 14:45:38;;;;;;;9.57;4.75;;;;;;;;;;7657051;23;20021;-68
2022/07/21 14:48:38;;;;;;;11.93;4.82;;;;;;;;;;7657978;23;20416;-64
2022/07/21 14:51:39;;;;;;;14.60;5.20;;;;;;;;;;7653036;23;20040;-67
2022/07/21 14:54:39;;;;;;;13.48;4.97;;;;;;;;;;7657311;23;20385;-65
2022/07/21 14:57:40;;;;;;;11.43;5.15;;;;;;;;;;7656626;23;20449;-71
2022/07/21 15:00:41;;;;;;;10.75;4.93;;;;;;;;;;7652287;23;20017;-64
2022/07/21 15:03:43;;;;;;;10.70;5.00;;;;;;;;;;7669483;23;20049;-64
2022/07/21 15:06:45;;;;;;;12.48;5.07;;;;;;;;;;7659645;23;20544;-64
2022/07/21 15:09:46;;;;;;;12.43;5.60;;;;;;;;;;7660475;23;20048;-63
2022/07/21 15:12:47;;;;;;;11.98;5.45;;;;;;;;;;7661396;23;20043;-65
2022/07/21 15:15:47;;;;;;;16.42;5.38;;;;;;;;;;7660984;23;20021;-64
2022/07/21 15:18:48;;;;;;;11.32;5.20;;;;;;;;;;7660431;23;20024;-70
2022/07/21 15:21:49;;;;;;;12.32;6.20;;;;;;;;;;7659938;23;20025;-65
2022/07/21 15:24:49;;;;;;;12.63;5.88;;;;;;;;;;7661235;23;20457;-67
2022/07/21 15:27:50;;;;;;;10.95;5.22;;;;;;;;;;7660574;23;20025;-68
2022/07/21 15:30:50;;;;;;;9.80;5.28;;;;;;;;;;7660664;23;20021;-65
2022/07/21 15:33:52;;;;;;;13.35;5.57;;;;;;;;;;7661786;23;20732;-64
2022/07/21 15:36:53;;;;;;;8.75;5.30;;;;;;;;;;7662637;23;20025;-68
2022/07/21 15:39:54;;;;;;;12.05;4.90;;;;;;;;;;7659935;23;20078;-63
2022/07/21 15:42:54;;;;;;;12.20;5.13;;;;;;;;;;7662593;23;20048;-65
2022/07/21 15:45:55;;;;;;;11.52;5.20;;;;;;;;;;7661735;23;20531;-64
2022/07/21 15:48:56;;;;;;;13.90;4.90;;;;;;;;;;7662182;23;20636;-65
2022/07/21 15:51:59;;;;;;;11.60;5.13;;;;;;;;;;7661765;23;20017;-65
2022/07/21 15:55:00;;;;;;;15.45;5.90;;;;;;;;;;7662869;23;20017;-64
2022/07/21 15:58:01;;;;;;;12.10;5.63;;;;;;;;;;7662399;23;20063;-65
2022/07/21 16:01:01;;;;;;;11.43;5.22;;;;;;;;;;7660285;23;20048;-65
2022/07/21 16:04:02;;;;;;;14.35;5.55;;;;;;;;;;7662506;23;20017;-66
2022/07/21 16:07:04;;;;;;;9.93;4.97;;;;;;;;;;7661512;23;20169;-65
2022/07/21 16:10:06;;;;;;;10.70;5.60;;;;;;;;;;7658915;23;20045;-65
2022/07/21 16:13:06;;;;;;;9.90;5.40;;;;;;;;;;7661258;23;20024;-67
2022/07/21 16:16:08;;;;;;;11.57;5.65;;;;;;;;;;7662089;23;20847;-69
2022/07/21 16:19:09;;;;;;;12.40;5.28;;;;;;;;;;7659686;23;20040;-65
2022/07/21 16:22:09;;;;;;;10.15;5.30;;;;;;;;;;7661277;23;20017;-73
2022/07/21 16:25:15;;;;;;;18.75;5.47;;;;;;;;;;7660330;23;20020;-66
2022/07/21 16:28:16;;;;;;;10.75;5.55;;;;;;;;;;7660354;23;20044;-66
2022/07/21 16:31:17;;;;;;;11.65;5.28;;;;;;;;;;7657029;23;20027;-66
2022/07/21 16:34:18;;;;;;;10.70;5.50;;;;;;;;;;7659464;23;20051;-65
2022/07/21 16:37:19;;;;;;;16.27;6.18;;;;;;;;;;7661268;23;20025;-64
2022/07/21 16:40:20;;;;;;;11.00;5.20;;;;;;;;;;7658789;23;20025;-65
2022/07/21 16:43:20;;;;;;;12.15;6.22;;;;;;;;;;7657139;23;20112;-67
2022/07/21 16:46:21;;;;;;;10.90;5.28;;;;;;;;;;7657733;23;20056;-65
2022/07/21 16:49:22;;;;;;;13.20;5.25;;;;;;;;;;7656470;23;20732;-66
2022/07/21 16:52:23;;;;;;;10.68;5.97;;;;;;;;;;7661547;23;20388;-63
2022/07/21 16:55:24;;;;;;;18.67;6.43;;;;;;;;;;7660893;23;20084;-62
2022/07/21 16:58:25;;;;;;;9.70;4.90;;;;;;;;;;7658857;23;20036;-65
2022/07/21 17:01:26;;;;;;;9.95;5.55;;;;;;;;;;7658922;23;20021;-64
2022/07/21 17:04:49;;;;;;;10.60;5.47;;;;;;;;;;7661213;23;20021;-63
2022/07/21 17:07:49;;;;;;;13.45;5.50;;;;;;;;;;7657184;23;20021;-72
2022/07/21 17:10:51;;;;;;;12.02;4.82;;;;;;;;;;7659944;23;20607;-79
2022/07/21 17:13:51;;;;;;;11.75;5.65;;;;;;;;;;7663437;23;20025;-79
2022/07/21 17:16:52;;;;;;;11.82;5.05;;;;;;;;;;7661467;23;20021;-79
2022/07/21 17:19:53;;;;;;;12.93;5.68;;;;;;;;;;7656896;23;20067;-78
2022/07/21 17:22:53;;;;;;;13.57;5.60;;;;;;;;;;7662435;23;20028;-73
2022/07/21 17:25:54;;;;;;;13.43;5.18;;;;;;;;;;7662727;23;20092;-74
2022/07/21 17:28:55;;;;;;;16.45;6.43;;;;;;;;;;7662274;23;20021;-78
2022/07/21 17:31:55;;;;;;;18.67;6.07;;;;;;;;;;7659820;23;20071;-80
2022/07/21 17:34:56;;;;;;;12.02;5.43;;;;;;;;;;7660427;23;20017;-62
2022/07/21 17:37:56;;;;;;;12.63;4.90;;;;;;;;;;7661075;23;20518;-79
2022/07/21 17:40:59;;;;;;;10.77;5.50;;;;;;;;;;7659918;23;20028;-76
2022/07/21 17:44:00;;;;;;;9.02;4.78;;;;;;;;;;7659072;23;20127;-71
2022/07/21 17:47:01;;;;;;;12.27;5.20;;;;;;;;;;7660782;23;20021;-68
2022/07/21 17:50:02;;;;;;;12.48;5.43;;;;;;;;;;7657905;23;20445;-73
2022/07/21 17:53:03;;;;;;;12.80;5.47;;;;;;;;;;7664622;23;20045;-70
2022/07/21 17:56:04;;;;;;;10.48;5.50;;;;;;;;;;7658459;23;20459;-66
2022/07/21 17:59:05;;;;;;;8.88;5.15;;;;;;;;;;7655906;23;20063;-65
2022/07/21 18:02:06;;;;;;;9.23;5.20;;;;;;;;;;7659537;23;20017;-66
2022/07/21 18:05:07;;;;;;;12.77;5.50;;;;;;;;;;7657909;23;20017;-73